Time;durP1;ratioP1;P1;durP2;ratioP2;P2;SDS_P1;SDS_P2;PMS_P1;PMS_P2;Temp;Humidity;BMP_temperature;BMP_pressure;BME280_temperature;BME280_humidity;BME280_pressure;Samples;Min_cycle;Max_cycle;Signal;HPM_P1;HPM_P2
2024/01/19 00:03:05;;;;;;;8.15;2.20;;;0.20;85.10;;;;;;9177313;19;20439;-72
2024/01/19 00:06:13;;;;;;;12.90;2.30;;;0.20;85.10;;;;;;9175886;19;20070;-72
2024/01/19 00:09:21;;;;;;;12.15;2.30;;;0.20;85.00;;;;;;9173760;19;20011;-72
2024/01/19 00:12:26;;;;;;;6.15;2.20;;;0.20;85.10;;;;;;9178077;19;20428;-72
2024/01/19 00:15:34;;;;;;;8.27;1.95;;;0.20;85.00;;;;;;9178521;19;20385;-71
2024/01/19 00:18:47;;;;;;;6.00;2.58;;;0.20;85.10;;;;;;9177532;19;20639;-74
2024/01/19 00:21:57;;;;;;;8.45;3.08;;;0.20;85.00;;;;;;9178197;19;20489;-72
2024/01/19 00:25:03;;;;;;;8.32;1.77;;;0.30;85.10;;;;;;9176362;19;20018;-73
2024/01/19 00:28:10;;;;;;;9.15;2.10;;;0.30;85.10;;;;;;9177736;19;20011;-73
2024/01/19 00:31:16;;;;;;;7.88;2.08;;;0.30;85.00;;;;;;9176449;19;20019;-73
2024/01/19 00:34:23;;;;;;;6.38;1.90;;;0.30;85.00;;;;;;9176919;19;20018;-73
2024/01/19 00:37:32;;;;;;;9.93;1.80;;;0.30;85.70;;;;;;9175453;19;20019;-72
2024/01/19 00:40:39;;;;;;;8.50;2.55;;;0.30;85.00;;;;;;9176462;19;20381;-72
2024/01/19 00:43:44;;;;;;;4.50;2.20;;;0.40;85.10;;;;;;9176847;19;20027;-73
2024/01/19 00:46:52;;;;;;;6.22;2.17;;;0.30;85.00;;;;;;9176831;19;20026;-73
2024/01/19 00:49:57;;;;;;;7.72;2.10;;;0.40;85.10;;;;;;9176711;19;20014;-70
2024/01/19 00:53:08;;;;;;;12.18;2.25;;;0.40;85.00;;;;;;9176122;19;20022;-69
2024/01/19 00:56:15;;;;;;;10.10;2.55;;;0.40;85.00;;;;;;9173875;19;20464;-70
2024/01/19 00:59:23;;;;;;;10.70;2.13;;;0.50;85.10;;;;;;9174187;19;20007;-69
2024/01/19 01:02:29;;;;;;;5.35;1.80;;;0.50;85.00;;;;;;9175476;19;20038;-70
2024/01/19 01:05:37;;;;;;;12.52;2.38;;;0.50;85.00;;;;;;9175113;19;20097;-71
2024/01/19 01:08:45;;;;;;;3.88;1.80;;;0.50;85.00;;;;;;9173424;19;20051;-70
2024/01/19 01:11:53;;;;;;;10.93;2.33;;;0.50;84.90;;;;;;9171746;19;20022;-72
2024/01/19 01:14:58;;;;;;;11.30;2.30;;;0.60;85.00;;;;;;9174707;19;20010;-71
2024/01/19 01:18:06;;;;;;;5.38;1.90;;;0.60;85.10;;;;;;9171062;19;20015;-70
2024/01/19 01:21:12;;;;;;;7.32;1.95;;;0.70;85.20;;;;;;9174987;19;20026;-71
2024/01/19 01:24:22;;;;;;;2.33;1.85;;;0.70;85.30;;;;;;9174693;19;20649;-70
2024/01/19 01:27:28;;;;;;;8.60;2.10;;;0.70;85.30;;;;;;9175241;19;20007;-71
2024/01/19 01:30:35;;;;;;;11.27;2.88;;;0.80;85.30;;;;;;9175644;19;20018;-69
2024/01/19 01:33:41;;;;;;;5.88;1.83;;;0.80;85.30;;;;;;9175112;19;20023;-69
2024/01/19 01:36:49;;;;;;;11.02;2.03;;;0.80;85.20;;;;;;9173959;19;20010;-69
2024/01/19 01:39:57;;;;;;;13.07;2.65;;;0.90;85.30;;;;;;9174122;19;20391;-69
2024/01/19 01:43:06;;;;;;;10.07;2.28;;;0.90;85.20;;;;;;9174740;19;20096;-69
2024/01/19 01:46:12;;;;;;;10.80;2.45;;;0.90;85.20;;;;;;9174449;19;20596;-70
2024/01/19 01:49:19;;;;;;;8.57;2.40;;;0.90;85.10;;;;;;9174098;19;20754;-69
2024/01/19 01:52:25;;;;;;;7.32;2.08;;;0.90;85.10;;;;;;9171635;19;20026;-69
2024/01/19 01:55:35;;;;;;;10.30;2.65;;;0.90;85.00;;;;;;9174409;19;20046;-69
2024/01/19 01:58:41;;;;;;;6.88;2.50;;;0.90;85.00;;;;;;9171626;19;20394;-70
2024/01/19 02:01:51;;;;;;;11.00;2.75;;;0.80;84.80;;;;;;9174032;19;20086;-72
2024/01/19 02:04:58;;;;;;;8.05;2.45;;;0.80;84.80;;;;;;9173887;19;20066;-72
2024/01/19 02:08:13;;;;;;;8.27;2.38;;;0.80;84.80;;;;;;9169231;19;20480;-72
2024/01/19 02:11:21;;;;;;;6.55;2.38;;;0.80;84.80;;;;;;9169494;19;20026;-72
2024/01/19 02:14:29;;;;;;;7.95;2.47;;;0.80;84.70;;;;;;9174084;19;20048;-72
2024/01/19 02:17:35;;;;;;;7.10;2.85;;;0.70;84.70;;;;;;9171579;19;20349;-72
2024/01/19 02:20:42;;;;;;;8.70;2.58;;;0.70;84.70;;;;;;9173511;19;20025;-72
2024/01/19 02:24:05;;;;;;;10.80;2.63;;;0.70;84.70;;;;;;9171993;19;20343;-72
2024/01/19 02:27:15;;;;;;;13.07;3.47;;;0.70;84.70;;;;;;9173518;19;20048;-72
2024/01/19 02:30:21;;;;;;;5.45;2.97;;;0.60;84.70;;;;;;9179549;19;20026;-73
2024/01/19 02:33:28;;;;;;;6.43;3.45;;;0.60;84.70;;;;;;9182887;19;20115;-71
2024/01/19 02:36:35;;;;;;;7.90;2.60;;;0.60;84.70;;;;;;9181793;19;20111;-72
2024/01/19 02:39:43;;;;;;;6.97;2.45;;;0.60;84.80;;;;;;9181605;19;20415;-72
2024/01/19 02:42:51;;;;;;;8.13;2.80;;;0.60;84.80;;;;;;9182176;19;20029;-72
2024/01/19 02:45:58;;;;;;;14.80;3.65;;;0.50;84.80;;;;;;9182098;19;20011;-70
2024/01/19 02:49:04;;;;;;;10.00;2.50;;;0.50;84.80;;;;;;9178099;19;20060;-72
2024/01/19 02:52:11;;;;;;;8.80;2.72;;;0.50;84.80;;;;;;9181057;19;20015;-71
2024/01/19 02:55:17;;;;;;;6.68;2.45;;;0.50;84.70;;;;;;9181598;19;20044;-71
2024/01/19 02:58:27;;;;;;;7.00;2.78;;;0.50;84.80;;;;;;9178739;19;20019;-71
2024/01/19 03:01:33;;;;;;;8.30;2.80;;;0.50;84.80;;;;;;9180124;19;20078;-72
2024/01/19 03:04:40;;;;;;;7.30;2.67;;;0.40;84.70;;;;;;9180769;19;20018;-71
2024/01/19 03:07:49;;;;;;;11.73;3.10;;;0.40;84.80;;;;;;9178245;19;20002;-74
2024/01/19 03:10:57;;;;;;;12.60;2.88;;;0.40;84.80;;;;;;9176290;19;20007;-71
2024/01/19 03:14:05;;;;;;;11.50;2.67;;;0.40;84.80;;;;;;9178970;19;20014;-71
2024/01/19 03:17:13;;;;;;;9.80;3.60;;;0.40;84.80;;;;;;9179888;19;20018;-71
2024/01/19 03:20:18;;;;;;;6.45;2.75;;;0.40;85.00;;;;;;9180483;19;20017;-71
2024/01/19 03:23:26;;;;;;;9.27;3.08;;;0.40;84.90;;;;;;9180431;19;20022;-72
2024/01/19 03:26:31;;;;;;;7.40;3.15;;;0.40;84.90;;;;;;9179474;19;20496;-71
2024/01/19 03:29:42;;;;;;;6.05;2.80;;;0.40;85.00;;;;;;9179019;19;20021;-72
2024/01/19 03:32:47;;;;;;;10.10;3.35;;;0.40;85.00;;;;;;9179904;19;20018;-72
2024/01/19 03:35:55;;;;;;;5.60;2.95;;;0.40;85.00;;;;;;9179040;19;20030;-72
2024/01/19 03:39:02;;;;;;;12.00;3.35;;;0.40;85.00;;;;;;9176304;19;20627;-71
2024/01/19 03:42:10;;;;;;;8.02;3.00;;;0.40;85.00;;;;;;9177827;19;20023;-73
2024/01/19 03:45:18;;;;;;;6.85;2.83;;;0.40;85.10;;;;;;9176151;19;20014;-73
2024/01/19 03:48:26;;;;;;;5.47;2.90;;;0.40;85.10;;;;;;9176507;19;20017;-71
2024/01/19 03:51:31;;;;;;;6.60;3.28;;;0.40;85.10;;;;;;9177960;19;20465;-71
2024/01/19 03:54:40;;;;;;;4.45;2.83;;;0.40;85.20;;;;;;9177106;19;20381;-73
2024/01/19 03:57:46;;;;;;;7.65;3.08;;;0.40;85.10;;;;;;9175256;19;20018;-71
2024/01/19 04:00:56;;;;;;;7.65;2.78;;;0.40;85.10;;;;;;9177410;19;20018;-72
2024/01/19 04:04:01;;;;;;;10.73;3.42;;;0.40;85.10;;;;;;9177708;19;20048;-71
2024/01/19 04:07:10;;;;;;;9.43;3.33;;;0.40;85.20;;;;;;9177504;19;20394;-71
2024/01/19 04:10:15;;;;;;;11.57;3.70;;;0.40;85.30;;;;;;9173374;19;20014;-71
2024/01/19 04:13:23;;;;;;;6.25;3.42;;;0.40;85.40;;;;;;9176098;19;20014;-71
2024/01/19 04:16:32;;;;;;;6.43;3.28;;;0.50;85.50;;;;;;9176041;19;20475;-71
2024/01/19 04:19:40;;;;;;;6.32;3.60;;;0.50;85.50;;;;;;9175299;19;20025;-70
2024/01/19 04:22:45;;;;;;;10.70;3.55;;;0.50;85.50;;;;;;9178851;19;20018;-71
2024/01/19 04:25:53;;;;;;;6.53;3.13;;;0.50;85.50;;;;;;9177319;19;20014;-72
2024/01/19 04:28:58;;;;;;;12.05;3.70;;;0.60;85.60;;;;;;9177144;19;20026;-72
2024/01/19 04:32:09;;;;;;;8.20;3.47;;;0.60;85.50;;;;;;9174957;19;20030;-72
2024/01/19 04:35:14;;;;;;;5.72;3.55;;;0.60;85.50;;;;;;9175160;19;20022;-72
2024/01/19 04:38:22;;;;;;;6.05;3.20;;;0.70;85.60;;;;;;9177254;19;20071;-72
2024/01/19 04:41:27;;;;;;;7.15;3.63;;;0.70;85.60;;;;;;9175071;19;20048;-72
2024/01/19 04:44:35;;;;;;;5.22;3.45;;;0.80;85.60;;;;;;9174841;19;20033;-71
2024/01/19 04:47:43;;;;;;;12.52;3.72;;;0.80;85.50;;;;;;9175286;19;20081;-71
2024/01/19 04:50:51;;;;;;;11.05;3.38;;;0.80;85.50;;;;;;9176138;19;20023;-72
2024/01/19 04:53:58;;;;;;;7.35;3.70;;;0.80;85.50;;;;;;9174149;19;20021;-72
2024/01/19 04:57:06;;;;;;;12.82;4.05;;;0.80;85.50;;;;;;9176247;19;20015;-74
2024/01/19 05:00:13;;;;;;;10.95;3.83;;;0.90;85.50;;;;;;9173981;19;20014;-72
2024/01/19 05:03:23;;;;;;;6.18;3.20;;;0.90;85.60;;;;;;9175443;19;20018;-72
2024/01/19 05:06:29;;;;;;;6.18;3.25;;;0.90;85.60;;;;;;9175332;19;20015;-73
2024/01/19 05:09:37;;;;;;;8.93;3.60;;;0.90;85.60;;;;;;9171138;19;20029;-72
2024/01/19 05:12:42;;;;;;;10.15;3.65;;;0.90;85.60;;;;;;9175437;19;20443;-73
2024/01/19 05:15:50;;;;;;;9.20;3.92;;;0.90;85.60;;;;;;9175674;19;20014;-73
2024/01/19 05:18:58;;;;;;;8.90;3.33;;;1.00;85.60;;;;;;9174837;19;20025;-75
2024/01/19 05:22:06;;;;;;;11.35;3.03;;;1.00;85.70;;;;;;9174656;19;20022;-73
2024/01/19 05:25:12;;;;;;;7.18;2.92;;;1.00;85.70;;;;;;9172794;19;20073;-73
2024/01/19 05:28:19;;;;;;;6.70;3.25;;;1.00;85.70;;;;;;9175298;19;20015;-73
2024/01/19 05:31:25;;;;;;;7.15;3.33;;;1.00;85.70;;;;;;9175907;19;20022;-71
2024/01/19 05:34:35;;;;;;;5.50;2.80;;;1.00;85.70;;;;;;9174074;19;20022;-69
2024/01/19 05:37:41;;;;;;;5.93;2.63;;;1.00;85.70;;;;;;9171312;19;20022;-69
2024/01/19 05:40:48;;;;;;;6.97;2.80;;;1.00;85.70;;;;;;9170635;19;20007;-68
2024/01/19 05:43:54;;;;;;;6.03;2.22;;;1.00;85.70;;;;;;9174124;19;20011;-67
2024/01/19 05:47:01;;;;;;;9.45;2.60;;;1.10;85.80;;;;;;9174545;19;20018;-68
2024/01/19 05:50:10;;;;;;;5.88;2.65;;;1.10;85.70;;;;;;9174550;19;20014;-68
2024/01/19 05:53:18;;;;;;;8.40;2.92;;;1.10;85.70;;;;;;9174334;19;20483;-67
2024/01/19 05:56:24;;;;;;;4.35;2.63;;;1.10;85.70;;;;;;9174131;19;20377;-68
2024/01/19 05:59:32;;;;;;;5.53;2.70;;;1.10;85.60;;;;;;9173286;19;20894;-69
2024/01/19 06:02:38;;;;;;;10.50;2.90;;;1.10;85.60;;;;;;9171964;19;20015;-68
2024/01/19 06:05:48;;;;;;;10.20;2.80;;;1.10;85.60;;;;;;9182057;19;20385;-68
2024/01/19 06:08:54;;;;;;;5.20;3.05;;;1.00;85.50;;;;;;9182819;19;20476;-67
2024/01/19 06:12:02;;;;;;;9.25;3.10;;;1.00;85.50;;;;;;9182441;19;20014;-68
2024/01/19 06:15:08;;;;;;;6.13;2.55;;;1.00;85.40;;;;;;9181811;19;20014;-67
2024/01/19 06:18:16;;;;;;;4.22;2.47;;;1.00;85.50;;;;;;9181967;19;20018;-67
2024/01/19 06:21:27;;;;;;;6.95;2.67;;;1.00;85.50;;;;;;9177974;19;20034;-68
2024/01/19 06:24:36;;;;;;;11.60;2.67;;;0.90;85.40;;;;;;9180296;19;20015;-70
2024/01/19 06:27:42;;;;;;;3.47;1.92;;;0.90;85.40;;;;;;9179328;19;20014;-67
2024/01/19 06:30:49;;;;;;;5.75;2.38;;;0.90;85.40;;;;;;9178685;19;20017;-67
2024/01/19 06:33:55;;;;;;;7.13;2.65;;;0.90;85.40;;;;;;9175950;19;20499;-68
2024/01/19 06:37:05;;;;;;;5.95;2.50;;;0.90;85.40;;;;;;9181726;19;20362;-70
2024/01/19 06:40:14;;;;;;;4.82;2.40;;;0.80;85.40;;;;;;9180334;19;20019;-72
2024/01/19 06:43:22;;;;;;;5.82;2.50;;;0.90;85.40;;;;;;9181751;19;20029;-72
2024/01/19 06:46:27;;;;;;;7.07;2.38;;;0.80;85.30;;;;;;9181396;19;20022;-71
2024/01/19 06:49:36;;;;;;;4.68;2.47;;;0.80;85.90;;;;;;9181376;19;20014;-72
2024/01/19 06:52:44;;;;;;;10.32;2.15;;;0.80;85.30;;;;;;9182266;19;20010;-72
2024/01/19 06:55:52;;;;;;;4.43;2.47;;;0.70;85.30;;;;;;9181472;19;20484;-72
2024/01/19 06:58:57;;;;;;;4.35;2.70;;;0.70;85.20;;;;;;9180045;19;20137;-75
2024/01/19 07:02:05;;;;;;;5.13;2.50;;;0.60;85.20;;;;;;9178658;19;20021;-72
2024/01/19 07:05:11;;;;;;;3.70;2.33;;;0.60;85.20;;;;;;9181228;19;20061;-71
2024/01/19 07:08:21;;;;;;;3.80;2.50;;;0.60;85.30;;;;;;9176620;19;20377;-72
2024/01/19 07:11:27;;;;;;;6.20;2.25;;;0.60;85.30;;;;;;9176314;19;20444;-72
2024/01/19 07:14:36;;;;;;;3.28;2.08;;;0.50;85.90;;;;;;9179511;19;20014;-71
2024/01/19 07:17:42;;;;;;;5.50;2.08;;;0.50;85.20;;;;;;9179502;19;20021;-71
2024/01/19 07:20:50;;;;;;;4.97;2.22;;;0.50;85.20;;;;;;9179120;19;20018;-72
2024/01/19 07:23:58;;;;;;;5.20;2.40;;;0.40;85.20;;;;;;9178200;19;20025;-72
2024/01/19 07:27:06;;;;;;;3.20;2.08;;;0.40;85.20;;;;;;9179896;19;20914;-72
2024/01/19 07:30:13;;;;;;;3.63;2.05;;;0.30;85.10;;;;;;9174475;19;20014;-72
2024/01/19 07:33:20;;;;;;;4.82;1.73;;;0.30;85.80;;;;;;9180396;19;20487;-72
2024/01/19 07:36:36;;;;;;;7.57;2.35;;;0.30;85.20;;;;;;9179668;19;20014;-72
2024/01/19 07:39:47;;;;;;;3.53;2.17;;;0.30;85.20;;;;;;9177923;19;20499;-72
2024/01/19 07:42:52;;;;;;;5.63;1.73;;;0.20;85.20;;;;;;9180060;19;20024;-72
2024/01/19 07:46:00;;;;;;;3.92;1.85;;;0.20;85.20;;;;;;9179655;19;20018;-73
2024/01/19 07:49:06;;;;;;;6.95;2.30;;;0.20;85.20;;;;;;9177045;19;20018;-69
2024/01/19 07:52:13;;;;;;;8.57;2.08;;;0.10;85.20;;;;;;9177526;19;20501;-67
2024/01/19 07:55:21;;;;;;;5.65;2.20;;;0.10;85.20;;;;;;9177451;19;20457;-67
2024/01/19 07:58:30;;;;;;;11.07;3.38;;;0.10;85.20;;;;;;9178639;19;20369;-67
2024/01/19 08:01:35;;;;;;;6.40;3.65;;;0.10;85.30;;;;;;9176534;19;20018;-69
2024/01/19 08:04:44;;;;;;;6.75;3.47;;;0.00;85.30;;;;;;9178664;19;20015;-68
2024/01/19 08:07:50;;;;;;;10.27;4.00;;;0.00;85.40;;;;;;9177789;19;20018;-68
2024/01/19 08:11:00;;;;;;;7.13;3.45;;;0.00;85.40;;;;;;9173645;19;20014;-68
2024/01/19 08:14:05;;;;;;;7.72;3.08;;;0.00;85.40;;;;;;9178484;19;20038;-69
2024/01/19 08:17:13;;;;;;;8.23;2.85;;;0.00;85.50;;;;;;9176820;19;20022;-68
2024/01/19 08:20:19;;;;;;;11.25;2.95;;;0.00;85.40;;;;;;9176225;19;20014;-71
2024/01/19 08:23:26;;;;;;;8.20;3.22;;;0.00;85.50;;;;;;9175853;19;20026;-69
2024/01/19 08:26:34;;;;;;;5.75;4.03;;;0.00;85.50;;;;;;9175064;19;20018;-68
2024/01/19 08:29:42;;;;;;;11.68;3.97;;;0.00;85.50;;;;;;9177354;19;20492;-69
2024/01/19 08:32:48;;;;;;;7.65;3.05;;;0.00;85.60;;;;;;9176482;19;20021;-69
2024/01/19 08:35:56;;;;;;;6.93;3.58;;;0.00;85.60;;;;;;9176842;19;20021;-68
2024/01/19 08:39:02;;;;;;;11.32;3.80;;;0.10;85.70;;;;;;9177243;19;20018;-71
2024/01/19 08:42:13;;;;;;;12.07;3.70;;;0.10;86.30;;;;;;9175534;19;20015;-70
2024/01/19 08:45:19;;;;;;;12.07;3.85;;;0.10;85.80;;;;;;9176802;19;20014;-68
2024/01/19 08:48:27;;;;;;;9.75;4.50;;;0.10;85.80;;;;;;9176766;19;20014;-69
2024/01/19 08:51:33;;;;;;;12.25;3.88;;;0.10;85.80;;;;;;9176554;19;20031;-68
2024/01/19 08:54:41;;;;;;;7.18;3.72;;;0.20;85.90;;;;;;9176032;19;20022;-69
2024/01/19 08:57:49;;;;;;;10.30;4.65;;;0.20;85.80;;;;;;9176526;19;20018;-68
2024/01/19 09:00:57;;;;;;;16.83;4.25;;;0.20;85.90;;;;;;9174994;19;20018;-68
2024/01/19 09:04:03;;;;;;;11.38;4.63;;;0.30;86.00;;;;;;9175388;19;20086;-68
2024/01/19 09:07:10;;;;;;;13.15;4.53;;;0.30;86.00;;;;;;9174791;19;20026;-69
2024/01/19 09:10:16;;;;;;;12.75;4.43;;;0.30;86.00;;;;;;9171871;19;20021;-69
2024/01/19 09:13:27;;;;;;;9.57;4.85;;;0.40;86.10;;;;;;9175165;19;20010;-68
2024/01/19 09:16:32;;;;;;;14.70;4.80;;;0.40;86.10;;;;;;9176086;19;20340;-69
2024/01/19 09:19:40;;;;;;;11.25;4.40;;;0.40;86.10;;;;;;9172662;19;20364;-69
2024/01/19 09:22:46;;;;;;;16.48;4.88;;;0.50;86.20;;;;;;9172144;19;20057;-69
2024/01/19 09:25:53;;;;;;;6.35;4.38;;;0.50;86.20;;;;;;9171794;19;20361;-68
2024/01/19 09:29:01;;;;;;;6.97;4.28;;;0.50;86.20;;;;;;9174981;19;20044;-68
2024/01/19 09:32:09;;;;;;;8.23;4.30;;;0.60;86.20;;;;;;9175471;19;20479;-68
2024/01/19 09:35:16;;;;;;;8.35;4.85;;;0.60;86.30;;;;;;9174836;19;20019;-69
2024/01/19 09:38:23;;;;;;;11.02;4.45;;;0.60;86.30;;;;;;9175093;19;20014;-67
2024/01/19 09:41:36;;;;;;;11.23;4.35;;;0.70;86.40;;;;;;9180341;19;20014;-67
2024/01/19 09:44:59;;;;;;;19.38;4.53;;;0.70;86.40;;;;;;9183604;19;20658;-68
2024/01/19 09:48:19;;;;;;;14.43;3.97;;;0.80;86.40;;;;;;9184456;19;20057;-68
2024/01/19 09:51:39;;;;;;;9.85;4.80;;;0.80;86.50;;;;;;9181101;19;21761;-69
2024/01/19 09:54:44;;;;;;;11.13;4.38;;;0.90;86.50;;;;;;9182987;19;20022;-69
2024/01/19 09:57:52;;;;;;;14.70;4.63;;;0.90;86.50;;;;;;9183745;19;20019;-68
2024/01/19 10:01:00;;;;;;;10.48;4.43;;;0.90;86.50;;;;;;9181530;19;20022;-69
2024/01/19 10:04:10;;;;;;;18.80;4.90;;;1.00;86.60;;;;;;9182416;19;20021;-69
2024/01/19 10:07:16;;;;;;;11.90;4.32;;;1.00;86.60;;;;;;9181693;19;20028;-70
2024/01/19 10:10:25;;;;;;;7.93;4.00;;;1.10;86.70;;;;;;9176941;19;20037;-75
2024/01/19 10:13:31;;;;;;;14.15;4.78;;;1.10;86.70;;;;;;9182459;19;20038;-75
2024/01/19 10:16:42;;;;;;;9.98;5.45;;;1.20;86.70;;;;;;9180221;19;20282;-74
2024/01/19 10:19:49;;;;;;;11.48;5.18;;;1.30;86.80;;;;;;9181042;19;20362;-76
2024/01/19 10:22:57;;;;;;;10.38;5.72;;;1.50;87.60;;;;;;9180098;19;20018;-74
2024/01/19 10:26:15;;;;;;;16.90;5.72;;;1.60;87.10;;;;;;9180200;19;20021;-75
2024/01/19 10:29:22;;;;;;;13.18;4.97;;;1.70;87.10;;;;;;9182379;19;20003;-75
2024/01/19 10:32:31;;;;;;;8.45;5.13;;;1.80;87.70;;;;;;9181972;19;20021;-75
2024/01/19 10:35:41;;;;;;;20.40;6.20;;;1.90;87.10;;;;;;9181238;19;20033;-74
2024/01/19 10:38:47;;;;;;;9.50;4.85;;;2.10;87.20;;;;;;9171286;19;21573;-73
2024/01/19 10:42:07;;;;;;;8.65;5.40;;;2.20;87.20;;;;;;9179037;19;20010;-74
2024/01/19 10:45:18;;;;;;;11.48;5.05;;;2.30;87.20;;;;;;9178147;19;20010;-74
2024/01/19 10:48:32;;;;;;;11.00;4.80;;;2.40;87.10;;;;;;9178923;19;20021;-74
2024/01/19 10:51:38;;;;;;;10.57;4.32;;;2.60;87.10;;;;;;9178909;19;20765;-75
2024/01/19 10:54:51;;;;;;;11.32;4.38;;;2.60;87.00;;;;;;9181217;19;20019;-73
2024/01/19 10:57:59;;;;;;;6.60;4.43;;;2.70;87.00;;;;;;9174787;19;20018;-73
2024/01/19 11:01:17;;;;;;;19.63;4.50;;;2.70;87.30;;;;;;9178698;19;20018;-73
2024/01/19 11:04:26;;;;;;;12.52;5.07;;;2.80;86.80;;;;;;9172727;19;20022;-74
2024/01/19 11:07:33;;;;;;;7.70;4.38;;;2.80;86.80;;;;;;9177461;19;20018;-74
2024/01/19 11:10:39;;;;;;;15.02;4.50;;;2.90;86.80;;;;;;9175056;19;20015;-74
2024/01/19 11:13:49;;;;;;;13.07;4.75;;;2.90;86.70;;;;;;9177949;19;20882;-74
2024/01/19 11:16:56;;;;;;;11.55;5.18;;;3.00;86.70;;;;;;9178483;19;20019;-74
2024/01/19 11:20:08;;;;;;;12.73;5.25;;;3.00;86.70;;;;;;9176961;19;20023;-74
2024/01/19 11:23:14;;;;;;;14.20;5.82;;;3.00;86.60;;;;;;9178395;19;20081;-74
2024/01/19 11:26:28;;;;;;;16.45;5.10;;;3.00;86.60;;;;;;9179864;19;20021;-74
2024/01/19 11:29:36;;;;;;;9.38;4.93;;;3.10;86.70;;;;;;9179300;19;20018;-74
2024/01/19 11:32:43;;;;;;;15.35;5.63;;;3.10;86.60;;;;;;9179794;19;20023;-74
2024/01/19 11:35:54;;;;;;;14.32;5.30;;;3.20;86.70;;;;;;9179418;19;20523;-73
2024/01/19 11:39:04;;;;;;;11.63;5.40;;;3.20;86.60;;;;;;9179502;19;20026;-73
2024/01/19 11:42:12;;;;;;;12.27;5.18;;;3.20;86.60;;;;;;9176761;19;20010;-72
2024/01/19 11:45:42;;;;;;;13.18;5.28;;;3.30;86.70;;;;;;9179018;19;20018;-73
2024/01/19 11:48:48;;;;;;;13.73;5.85;;;3.30;86.60;;;;;;9179521;19;20077;-72
2024/01/19 11:51:58;;;;;;;13.68;4.95;;;3.40;86.60;;;;;;9179114;19;20025;-74
2024/01/19 11:55:37;;;;;;;11.20;5.43;;;3.40;86.60;;;;;;9178303;19;20021;-74
2024/01/19 11:58:44;;;;;;;14.05;5.43;;;3.40;86.60;;;;;;9178294;19;20024;-73
2024/01/19 12:01:50;;;;;;;10.30;5.20;;;3.50;86.60;;;;;;9176288;19;20020;-74
2024/01/19 12:05:00;;;;;;;14.40;5.93;;;3.50;86.60;;;;;;9174168;19;20014;-74
2024/01/19 12:08:08;;;;;;;9.65;5.32;;;3.50;86.60;;;;;;9176343;19;20566;-74
2024/01/19 12:11:17;;;;;;;12.68;4.97;;;3.60;86.60;;;;;;9170935;19;20014;-73
2024/01/19 12:14:22;;;;;;;19.17;6.43;;;3.60;87.10;;;;;;9178985;19;20010;-74
2024/01/19 12:17:31;;;;;;;14.60;5.97;;;3.60;86.50;;;;;;9178104;19;20022;-74
2024/01/19 12:20:37;;;;;;;16.30;6.00;;;3.60;86.40;;;;;;9175954;19;20029;-73
2024/01/19 12:23:47;;;;;;;15.02;5.75;;;3.70;86.40;;;;;;9175588;19;20018;-73
2024/01/19 12:26:53;;;;;;;14.18;6.60;;;3.60;86.40;;;;;;9177356;19;20017;-74
2024/01/19 12:30:01;;;;;;;12.10;4.82;;;3.70;86.40;;;;;;9177585;19;20022;-71
2024/01/19 12:33:17;;;;;;;13.73;5.03;;;3.70;86.40;;;;;;9177718;19;20028;-73
2024/01/19 12:36:28;;;;;;;13.13;6.00;;;3.70;86.40;;;;;;9174245;19;20011;-73
2024/01/19 12:39:36;;;;;;;17.13;5.90;;;3.70;86.40;;;;;;9177815;19;20044;-73
2024/01/19 12:42:44;;;;;;;14.07;6.53;;;3.80;86.40;;;;;;9176309;19;20022;-72
2024/01/19 12:45:50;;;;;;;10.88;5.90;;;3.80;86.40;;;;;;9176554;19;20022;-73
2024/01/19 12:49:02;;;;;;;11.90;5.70;;;3.90;86.40;;;;;;9175726;19;20022;-73
2024/01/19 12:52:09;;;;;;;15.52;6.35;;;3.90;86.40;;;;;;9176863;19;20039;-72
2024/01/19 12:55:28;;;;;;;10.80;5.88;;;3.90;86.30;;;;;;9176462;19;20022;-72
2024/01/19 12:58:34;;;;;;;19.55;6.30;;;3.90;86.30;;;;;;9175297;19;20014;-73
2024/01/19 13:01:44;;;;;;;26.80;7.35;;;3.90;86.30;;;;;;9173851;19;20023;-72
2024/01/19 13:04:50;;;;;;;16.50;6.78;;;3.90;86.20;;;;;;9174573;19;20813;-72
2024/01/19 13:08:01;;;;;;;15.57;6.68;;;3.90;86.10;;;;;;9172501;19;20019;-73
2024/01/19 13:11:11;;;;;;;14.90;6.65;;;3.90;86.10;;;;;;9170083;19;20018;-73
2024/01/19 13:14:25;;;;;;;17.92;6.30;;;4.00;86.20;;;;;;9173541;19;20018;-73
2024/01/19 13:17:31;;;;;;;10.10;5.78;;;4.00;86.90;;;;;;9175067;19;20030;-70
2024/01/19 13:20:39;;;;;;;13.10;5.32;;;4.00;86.80;;;;;;9175857;19;20015;-73
2024/01/19 13:23:46;;;;;;;16.85;6.78;;;4.00;86.20;;;;;;9175289;19;20010;-73
2024/01/19 13:27:03;;;;;;;12.73;4.80;;;4.00;86.10;;;;;;9174535;19;20030;-73
2024/01/19 13:30:10;;;;;;;19.38;4.95;;;4.10;86.20;;;;;;9175068;19;20590;-72
2024/01/19 13:33:18;;;;;;;13.18;4.93;;;4.10;86.30;;;;;;9175871;19;20029;-73
2024/01/19 13:36:25;;;;;;;14.30;4.57;;;4.10;86.20;;;;;;9176043;19;20107;-73
2024/01/19 13:39:32;;;;;;;14.80;4.60;;;4.10;86.20;;;;;;9174790;19;20014;-71
2024/01/19 13:42:41;;;;;;;13.55;4.13;;;4.10;86.20;;;;;;9173393;19;20030;-71
2024/01/19 13:45:48;;;;;;;13.90;4.03;;;4.10;86.20;;;;;;9172688;19;20018;-70
2024/01/19 13:48:54;;;;;;;16.95;4.78;;;4.20;86.20;;;;;;9173760;19;20018;-70
2024/01/19 13:52:01;;;;;;;10.90;4.15;;;4.10;86.10;;;;;;9175096;19;20396;-71
2024/01/19 13:55:27;;;;;;;13.50;3.63;;;4.20;86.10;;;;;;9174669;19;20030;-71
2024/01/19 13:58:44;;;;;;;10.10;4.43;;;4.20;86.10;;;;;;9172916;19;20011;-71
2024/01/19 14:01:51;;;;;;;16.33;4.18;;;4.20;86.10;;;;;;9173464;19;20023;-71
2024/01/19 14:05:02;;;;;;;14.95;4.18;;;4.20;86.10;;;;;;9172985;19;20387;-71
2024/01/19 14:08:10;;;;;;;8.68;3.45;;;4.20;86.10;;;;;;9171947;19;20026;-72
2024/01/19 14:11:18;;;;;;;10.60;4.72;;;4.20;86.00;;;;;;9169527;19;20022;-71
2024/01/19 14:14:26;;;;;;;11.75;3.95;;;4.20;86.00;;;;;;9174049;19;20022;-70
2024/01/19 14:17:34;;;;;;;14.27;4.18;;;4.20;86.00;;;;;;9174271;19;20082;-71
2024/01/19 14:20:39;;;;;;;9.68;3.60;;;4.20;86.00;;;;;;9172879;19;20010;-71
2024/01/19 14:23:47;;;;;;;13.07;3.85;;;4.30;86.00;;;;;;9172540;19;20574;-70
2024/01/19 14:26:52;;;;;;;17.52;4.22;;;4.20;85.90;;;;;;9182163;19;20024;-70
2024/01/19 14:30:03;;;;;;;10.43;3.20;;;4.30;85.90;;;;;;9181138;19;20015;-70
2024/01/19 14:33:09;;;;;;;11.25;4.32;;;4.30;85.90;;;;;;9180580;19;20110;-70
2024/01/19 14:36:18;;;;;;;12.38;3.00;;;;;;;;;;9182778;19;20018;-70
2024/01/19 14:39:23;;;;;;;11.82;3.35;;;4.30;87.30;;;;;;9182839;19;20676;-71
2024/01/19 14:42:31;;;;;;;15.38;3.13;;;4.40;89.50;;;;;;9181547;19;20365;-71
2024/01/19 14:45:39;;;;;;;7.63;2.72;;;4.40;89.60;;;;;;9179949;19;20373;-72
2024/01/19 14:48:46;;;;;;;16.48;3.13;;;4.40;89.70;;;;;;9179693;19;20349;-72
2024/01/19 14:51:52;;;;;;;8.50;2.47;;;4.40;89.70;;;;;;9180916;19;20014;-71
2024/01/19 14:55:03;;;;;;;9.02;2.92;;;4.40;90.00;;;;;;9182113;19;20014;-69
2024/01/19 14:58:09;;;;;;;11.55;2.80;;;4.40;89.50;;;;;;9181718;19;20022;-68
2024/01/19 15:01:19;;;;;;;11.27;2.90;;;4.40;89.90;;;;;;9181913;19;20014;-71
2024/01/19 15:04:25;;;;;;;9.18;2.55;;;4.40;89.80;;;;;;9179660;19;20423;-69
2024/01/19 15:07:33;;;;;;;7.50;2.28;;;4.40;90.00;;;;;;9179344;19;20022;-70
2024/01/19 15:10:38;;;;;;;16.92;3.47;;;4.50;90.00;;;;;;9176494;19;20654;-69
2024/01/19 15:13:46;;;;;;;9.38;2.58;;;4.40;89.80;;;;;;9180009;19;20030;-69
2024/01/19 15:16:54;;;;;;;16.00;2.83;;;4.40;89.80;;;;;;9180498;19;20015;-71
2024/01/19 15:20:02;;;;;;;10.40;2.45;;;4.40;89.90;;;;;;9178437;19;20023;-69
2024/01/19 15:23:08;;;;;;;10.55;5.03;;;4.40;89.90;;;;;;9178998;19;20428;-70
2024/01/19 15:26:18;;;;;;;11.50;3.33;;;4.40;90.10;;;;;;9176294;19;20024;-69
2024/01/19 15:29:24;;;;;;;14.60;2.80;;;4.30;89.70;;;;;;9179941;19;20015;-69
2024/01/19 15:32:36;;;;;;;10.38;3.22;;;4.30;89.90;;;;;;9180419;19;20054;-69
2024/01/19 15:35:42;;;;;;;12.90;3.30;;;4.30;89.90;;;;;;9177569;19;20015;-69
2024/01/19 15:38:49;;;;;;;13.75;3.65;;;4.20;89.80;;;;;;9180435;19;20022;-69
2024/01/19 15:41:56;;;;;;;7.70;3.10;;;4.30;90.10;;;;;;9179677;19;20090;-69
2024/01/19 15:45:03;;;;;;;16.27;4.10;;;4.20;90.10;;;;;;9178835;19;20037;-69
2024/01/19 15:48:12;;;;;;;10.32;3.30;;;4.20;90.10;;;;;;9179369;19;20448;-69
2024/01/19 15:51:26;;;;;;;11.75;3.22;;;4.20;89.80;;;;;;9179383;19;20020;-69
2024/01/19 15:54:32;;;;;;;16.75;4.03;;;4.20;90.00;;;;;;9177730;19;20026;-69
2024/01/19 15:57:40;;;;;;;12.48;3.65;;;4.30;90.10;;;;;;9177092;19;20026;-70
2024/01/19 16:00:46;;;;;;;9.02;3.22;;;4.10;90.20;;;;;;9177562;19;20017;-70
2024/01/19 16:03:56;;;;;;;8.57;3.63;;;4.10;89.80;;;;;;9179863;19;20094;-70
2024/01/19 16:07:04;;;;;;;11.88;3.03;;;4.00;90.00;;;;;;9175269;19;20460;-71
2024/01/19 16:10:12;;;;;;;12.82;3.47;;;3.90;90.10;;;;;;9175232;19;20018;-69
2024/01/19 16:13:17;;;;;;;10.23;3.15;;;3.90;89.70;;;;;;9178973;19;20349;-70
2024/01/19 16:16:25;;;;;;;15.68;3.50;;;3.90;89.90;;;;;;9177945;19;20507;-71
2024/01/19 16:19:33;;;;;;;15.50;5.53;;;3.90;89.80;;;;;;9176299;19;20442;-70
2024/01/19 16:22:41;;;;;;;18.75;5.10;;;3.80;90.00;;;;;;9174604;19;20017;-70
2024/01/19 16:25:46;;;;;;;17.67;5.25;;;3.90;90.30;;;;;;9175149;19;20021;-70
2024/01/19 16:28:55;;;;;;;13.30;5.90;;;3.80;90.20;;;;;;9174475;19;20057;-70